createdAt,value
2018-07-16T01:38:01.102Z,0.1
2018-07-16T01:40:06.108Z,0.2
2018-07-16T01:41:01.241Z,0.3
2018-07-16T01:43:01.105Z,0.4
2018-07-16T01:44:01.101Z,0.5
2018-07-16T01:45:06.098Z,0.5
2018-07-16T01:46:01.257Z,0.6
2018-07-16T01:47:01.099Z,0.7
2018-07-16T01:50:01.125Z,0.8
2018-07-16T01:51:01.229Z,0.9
2018-07-16T01:52:01.094Z,1.0
2018-07-16T01:53:01.088Z,1.1
2018-07-16T01:54:01.087Z,1.2
2018-07-16T01:55:01.108Z,1.3
2018-07-16T01:57:01.228Z,1.5
2018-07-16T01:58:01.081Z,1.6
2018-07-16T01:59:01.083Z,1.7
2018-07-16T02:00:01.112Z,1.9
2018-07-16T02:01:01.086Z,2.1
2018-07-16T02:02:01.291Z,2.3
2018-07-16T02:03:01.091Z,2.5
2018-07-16T02:04:01.091Z,2.8
2018-07-16T02:05:01.111Z,3.1
2018-07-16T02:06:01.091Z,3.5
2018-07-16T02:07:01.231Z,3.8
2018-07-16T02:08:01.091Z,4.2
2018-07-16T02:09:01.099Z,4.7
2018-07-16T02:10:06.090Z,5.1
2018-07-16T02:11:01.092Z,5.7
2018-07-16T02:12:01.229Z,6.3
2018-07-16T02:13:01.098Z,7.0
2018-07-16T02:14:01.099Z,7.8
2018-07-16T02:15:01.114Z,8.7
2018-07-16T02:16:01.093Z,9.6
2018-07-16T02:17:01.233Z,10.7
2018-07-16T02:18:01.094Z,11.9
2018-07-16T02:19:01.098Z,13.3
2018-07-16T02:20:01.117Z,14.9
2018-07-16T02:21:01.092Z,16.7
2018-07-16T02:22:01.234Z,18.7
2018-07-16T02:23:01.099Z,20.9
2018-07-16T02:24:01.088Z,23.3
2018-07-16T02:25:01.118Z,26.2
2018-07-16T02:26:01.091Z,29.3
2018-07-16T02:27:01.229Z,32.9
2018-07-16T02:28:01.062Z,37.0
2018-07-16T02:29:06.097Z,41.5
2018-07-16T02:30:01.097Z,46.7
2018-07-16T02:31:01.090Z,52.4
2018-07-16T02:32:01.234Z,58.7
2018-07-16T02:33:01.093Z,65.9
2018-07-16T02:34:01.118Z,73.8
2018-07-16T02:35:01.089Z,82.7
2018-07-16T02:36:01.096Z,92.5
2018-07-16T02:37:01.256Z,103.4
2018-07-16T02:38:01.092Z,115.5
2018-07-16T02:39:01.133Z,129.0
2018-07-16T02:40:01.091Z,143.9
2018-07-16T02:41:01.093Z,160.5
2018-07-16T02:42:01.234Z,178.6
2018-07-16T02:43:01.095Z,198.6
2018-07-16T02:44:06.097Z,220.7
2018-07-16T02:45:01.065Z,244.9
2018-07-16T02:46:01.067Z,271.4
2018-07-16T02:47:01.213Z,300.5
2018-07-16T02:48:01.062Z,332.2
2018-07-16T02:49:06.097Z,366.7
2018-07-16T02:50:06.072Z,404.3
2018-07-16T02:51:01.065Z,445.1
2018-07-16T02:52:01.212Z,489.3
2018-07-16T02:53:01.096Z,537.1
2018-07-16T02:54:06.098Z,588.7
2018-07-16T02:55:01.062Z,644.2
2018-07-16T02:56:01.097Z,703.8
2018-07-16T02:57:01.214Z,767.7
2018-07-16T02:58:01.063Z,836.1
2018-07-16T02:59:06.096Z,909.1
2018-07-16T03:00:06.105Z,986.9
2018-07-16T03:01:01.066Z,1069.6
2018-07-16T03:02:01.244Z,1157.3
2018-07-16T03:03:06.107Z,1250.2
2018-07-16T03:04:01.105Z,1348.5
2018-07-16T03:05:01.099Z,1452.2
2018-07-16T03:06:01.088Z,1561.5
2018-07-16T03:08:01.230Z,1687.5
2018-07-16T03:09:01.093Z,1819.7
2018-07-16T03:10:01.060Z,1958.1
2018-07-16T03:11:01.056Z,2103.1
2018-07-16T03:12:01.057Z,2254.9
2018-07-16T03:13:01.260Z,2413.9
2018-07-16T03:14:01.097Z,2580.0
2018-07-16T03:15:01.057Z,2753.5
2018-07-16T03:16:01.061Z,2934.2
2018-07-16T03:17:01.098Z,3121.4
2018-07-16T03:18:01.282Z,3315.0
2018-07-16T03:19:01.057Z,3514.9
2018-07-16T03:20:01.059Z,3720.7
2018-07-16T03:21:01.061Z,3932.7
2018-07-16T03:22:01.060Z,4150.5
2018-07-16T03:23:01.235Z,4363.7
2018-07-16T03:24:01.058Z,4582.9
2018-07-16T03:25:01.088Z,4806.9
2018-07-16T03:26:01.062Z,5034.6
2018-07-16T03:27:01.061Z,5266.0
2018-07-16T03:28:01.242Z,5504.1
2018-07-16T03:29:01.090Z,5750.2
2018-07-16T03:30:01.060Z,6002.0
2018-07-16T03:31:01.064Z,6260.5
2018-07-16T03:32:01.128Z,6525.0
2018-07-16T03:33:01.273Z,6794.9
2018-07-16T03:34:01.096Z,7069.4
2018-07-16T03:35:01.063Z,7348.8
2018-07-16T03:36:01.065Z,7632.9
2018-07-16T03:37:06.095Z,7921.5
2018-07-16T03:38:01.203Z,8213.7
2018-07-16T03:39:01.103Z,8508.9
2018-07-16T03:40:01.067Z,8807.8
2018-07-16T03:41:01.064Z,9111.1
2018-07-16T03:42:01.087Z,9418.4
2018-07-16T03:43:01.236Z,9726.0
2018-07-16T03:44:01.064Z,10031.6
2018-07-16T03:45:01.104Z,10337.1
2018-07-16T03:46:01.066Z,10641.8
2018-07-16T03:47:01.122Z,10946.4
2018-07-16T03:48:01.301Z,11251.5
2018-07-16T03:49:01.131Z,11557.5
2018-07-16T03:50:01.101Z,11863.9
2018-07-16T03:51:01.103Z,12170.3
2018-07-16T03:52:01.121Z,12476.5
2018-07-16T03:53:01.247Z,12782.3
2018-07-16T03:54:01.071Z,13088.1
2018-07-16T03:55:01.066Z,13393.8
2018-07-16T03:56:01.068Z,13699.0
2018-07-16T03:57:06.105Z,14003.2
2018-07-16T03:58:01.250Z,14306.7
2018-07-16T03:59:01.098Z,14610.5
2018-07-16T04:00:01.072Z,14913.9
2018-07-16T04:01:01.166Z,15216.7
2018-07-16T04:02:06.097Z,15518.3
2018-07-16T04:03:01.243Z,15818.1
2018-07-16T04:04:01.069Z,16115.8
2018-07-16T04:05:01.104Z,16411.3
2018-07-16T04:06:01.132Z,16704.6
2018-07-16T04:08:01.514Z,17014.6
2018-07-16T04:09:01.091Z,17324.0
2018-07-16T04:10:01.153Z,17633.1
2018-07-16T04:11:06.157Z,17942.1
2018-07-16T04:12:01.057Z,18250.6
2018-07-16T04:13:01.236Z,18559.9
2018-07-16T04:14:01.094Z,18868.1
2018-07-16T04:15:01.157Z,19174.6
2018-07-16T04:16:01.228Z,19479.5
2018-07-16T04:17:01.161Z,19783.1
2018-07-16T04:18:01.238Z,20086.6
2018-07-16T04:19:01.098Z,20391.5
2018-07-16T04:20:01.097Z,20698.8
2018-07-16T04:21:06.095Z,21009.6
2018-07-16T04:22:01.095Z,21323.8
2018-07-16T04:23:01.244Z,21622.8
2018-07-16T04:24:01.065Z,21924.7
2018-07-16T04:25:01.066Z,22228.7
2018-07-16T04:26:01.120Z,22534.5
2018-07-16T04:27:01.074Z,22843.3
2018-07-16T04:28:01.244Z,23154.8
2018-07-16T04:29:01.100Z,23471.0
2018-07-16T04:30:01.068Z,23792.9
2018-07-16T04:31:06.110Z,24120.9
2018-07-16T04:32:01.097Z,24455.1
2018-07-16T04:33:01.370Z,24794.4
2018-07-16T04:34:01.104Z,25137.1
2018-07-16T04:35:01.221Z,25481.3
2018-07-16T04:36:01.099Z,25825.1
2018-07-16T04:37:01.072Z,26167.6
2018-07-16T04:38:01.246Z,26508.5
2018-07-16T04:39:01.068Z,26847.2
2018-07-16T04:40:01.114Z,27183.4
2018-07-16T04:41:06.079Z,27516.5
2018-07-16T04:42:01.068Z,27846.3
2018-07-16T04:43:01.211Z,28171.5
2018-07-16T04:44:01.104Z,28490.7
2018-07-16T04:45:01.072Z,28803.0
2018-07-16T04:46:01.127Z,29106.8
2018-07-16T04:47:01.069Z,29401.9
2018-07-16T04:48:01.308Z,29688.1
2018-07-16T04:49:01.070Z,29966.5
2018-07-16T04:50:01.068Z,30239.1
2018-07-16T04:51:01.137Z,30506.7
2018-07-16T04:53:01.357Z,30786.4
2018-07-16T04:54:01.091Z,31062.7
2018-07-16T04:55:01.094Z,31336.3
2018-07-16T04:56:01.085Z,31607.8
2018-07-16T04:57:01.113Z,31880.5
2018-07-16T04:58:01.233Z,32157.1
2018-07-16T04:59:01.054Z,32424.1
2018-07-16T05:00:01.083Z,32695.7
2018-07-16T05:01:01.132Z,33025.7
2018-07-16T05:02:01.100Z,33885.9
2018-07-16T05:03:01.208Z,35297.3
2018-07-16T05:04:01.064Z,36906.2
2018-07-16T05:05:01.072Z,38528.2
2018-07-16T05:06:01.136Z,40156.8
2018-07-16T05:07:01.095Z,41782.4
2018-07-16T05:08:01.236Z,43398.5
2018-07-16T05:09:01.096Z,45029.2
2018-07-16T05:10:01.090Z,46654.5
2018-07-16T05:11:01.145Z,48270.9
2018-07-16T05:12:01.075Z,49878.1
2018-07-16T05:13:01.243Z,51484.3
2018-07-16T05:14:06.096Z,53096.3
2018-07-16T05:15:01.097Z,54694.5
2018-07-16T05:16:01.096Z,56226.9
2018-07-16T05:17:01.066Z,57218.7
2018-07-16T05:18:01.285Z,57648.3
2018-07-16T05:19:01.129Z,57872.1
2018-07-16T05:20:01.070Z,58081.2
2018-07-16T05:21:01.073Z,58282.5
2018-07-16T05:22:06.104Z,58483.9
2018-07-16T05:23:01.248Z,58669.9
2018-07-16T05:24:01.076Z,58840.5
2018-07-16T05:25:01.080Z,59019.9
2018-07-16T05:26:01.104Z,59205.9
2018-07-16T05:27:06.106Z,59395.9
2018-07-16T05:28:01.244Z,59586.0
2018-07-16T05:29:01.073Z,59789.6
2018-07-16T05:30:01.103Z,60017.3
2018-07-16T05:32:01.226Z,60275.1
2018-07-16T05:33:01.230Z,60544.3
2018-07-16T05:34:01.096Z,60833.7
2018-07-16T05:35:01.061Z,61137.7
2018-07-16T05:36:01.091Z,61441.5
2018-07-16T05:37:06.093Z,61730.4
2018-07-16T05:38:01.299Z,62004.3
2018-07-16T05:39:01.062Z,62269.9
2018-07-16T05:40:01.092Z,62502.4
2018-07-16T05:41:01.100Z,62685.5
2018-07-16T05:42:06.093Z,62818.8
2018-07-16T05:43:01.240Z,62917.4
2018-07-16T05:44:01.061Z,62977.2
2018-07-16T05:45:01.094Z,63000.5
2018-07-16T05:46:01.094Z,62993.3
2018-07-16T05:47:01.121Z,62956.7
2018-07-16T05:48:01.241Z,62923.9
2018-07-16T05:49:01.090Z,62896.6
2018-07-16T05:50:01.093Z,62880.3
2018-07-16T05:51:01.068Z,62893.1
2018-07-16T05:52:01.089Z,62947.5
2018-07-16T05:53:01.242Z,63058.6
2018-07-16T05:54:01.065Z,63175.7
2018-07-16T05:55:01.107Z,63309.9
2018-07-16T05:56:01.098Z,63472.8
2018-07-16T05:57:06.098Z,63670.3
2018-07-16T05:58:01.252Z,63887.7
2018-07-16T05:59:01.067Z,64121.7
2018-07-16T06:00:01.065Z,64364.1
2018-07-16T06:01:01.101Z,64604.5
2018-07-16T06:02:01.091Z,64834.3
2018-07-16T06:03:01.246Z,65043.5
2018-07-16T06:04:01.068Z,65221.6
2018-07-16T06:05:01.074Z,65367.2
2018-07-16T06:06:01.074Z,65469.4
2018-07-16T06:07:06.074Z,65529.7
2018-07-16T06:08:01.253Z,65535.0
2018-07-16T06:15:01.257Z,65535.0
2018-07-16T06:30:01.160Z,65535.0
2018-07-16T06:45:01.102Z,65535.0
2018-07-16T07:00:01.172Z,65535.0
2018-07-16T07:15:01.108Z,65535.0
2018-07-16T07:30:01.100Z,65535.0
2018-07-16T07:45:01.163Z,65535.0
2018-07-16T08:00:01.164Z,65535.0
2018-07-16T08:15:01.068Z,65535.0
2018-07-16T08:30:01.233Z,65535.0
2018-07-16T08:45:06.153Z,65535.0
2018-07-16T09:00:01.159Z,65535.0
2018-07-16T09:15:01.097Z,65535.0
2018-07-16T09:30:01.312Z,65535.0
2018-07-16T09:45:01.093Z,65535.0
2018-07-16T10:00:01.166Z,65535.0
2018-07-16T10:15:06.108Z,65535.0
2018-07-16T10:30:06.088Z,65535.0
2018-07-16T10:45:06.091Z,65535.0
2018-07-16T11:00:01.167Z,65535.0
2018-07-16T11:15:01.073Z,65535.0
2018-07-16T11:30:01.089Z,65535.0
2018-07-16T11:45:01.236Z,65535.0
2018-07-16T12:00:01.068Z,65535.0
2018-07-16T12:15:01.103Z,65535.0
2018-07-16T12:30:01.299Z,65535.0
2018-07-16T12:45:01.233Z,65535.0
2018-07-16T13:00:02.405Z,65535.0
2018-07-16T13:15:01.241Z,65535.0
2018-07-16T13:30:01.411Z,65535.0
2018-07-16T13:45:01.202Z,65535.0
2018-07-16T14:00:01.499Z,65535.0
2018-07-16T14:15:01.196Z,65535.0
2018-07-16T14:30:01.302Z,65535.0
2018-07-16T14:45:01.358Z,65535.0
2018-07-16T15:00:02.174Z,65535.0
2018-07-16T15:15:01.301Z,65535.0
2018-07-16T15:30:01.163Z,65535.0
2018-07-16T15:45:01.299Z,65535.0
2018-07-16T16:00:02.297Z,65535.0
2018-07-16T16:15:06.111Z,65535.0
2018-07-16T16:27:01.059Z,65120.5
2018-07-16T16:28:01.094Z,64623.5
2018-07-16T16:30:01.147Z,64623.5
2018-07-16T16:32:01.052Z,64004.8
2018-07-16T16:33:01.133Z,63248.7
2018-07-16T16:34:01.090Z,63123.5
2018-07-16T16:38:01.095Z,62607.5
2018-07-16T16:39:01.097Z,61233.8
2018-07-16T16:40:01.109Z,59719.2
2018-07-16T16:41:01.236Z,58196.7
2018-07-16T16:42:01.104Z,57045.6
2018-07-16T16:43:01.163Z,56478.1
2018-07-16T16:44:01.060Z,55333.0
2018-07-16T16:45:01.133Z,53683.1
2018-07-16T16:46:01.233Z,51983.9
2018-07-16T16:47:01.090Z,50882.9
2018-07-16T16:48:01.067Z,49899.3
2018-07-16T16:49:01.147Z,48268.1
2018-07-16T16:50:01.115Z,46494.9
2018-07-16T16:51:01.215Z,44708.1
2018-07-16T16:52:01.104Z,42913.3
2018-07-16T16:53:01.067Z,41624.0
2018-07-16T16:54:01.096Z,41181.5
2018-07-16T16:55:06.108Z,40867.3
2018-07-16T16:56:01.248Z,40548.4
2018-07-16T16:57:01.065Z,40257.6
2018-07-16T16:58:01.064Z,39453.3
2018-07-16T16:59:01.068Z,38716.1
2018-07-16T17:00:06.162Z,38470.7
2018-07-16T17:01:01.240Z,38261.1
2018-07-16T17:02:01.097Z,38061.7
2018-07-16T17:03:01.066Z,37873.1
2018-07-16T17:04:01.127Z,37692.5
2018-07-16T17:05:01.064Z,37518.7
2018-07-16T17:06:01.203Z,37350.3
2018-07-16T17:07:01.062Z,37181.3
2018-07-16T17:09:01.145Z,37003.4
2018-07-16T17:10:01.114Z,36826.1
2018-07-16T17:11:01.187Z,36650.7
2018-07-16T17:12:01.051Z,36475.4
2018-07-16T17:13:01.077Z,36302.7
2018-07-16T17:14:01.086Z,36129.8
2018-07-16T17:15:01.116Z,35957.3
2018-07-16T17:16:01.228Z,35785.2
2018-07-16T17:17:01.046Z,35615.3
2018-07-16T17:18:01.125Z,35439.4
2018-07-16T17:19:01.052Z,35257.8
2018-07-16T17:20:01.075Z,35069.8
2018-07-16T17:21:01.308Z,34876.5
2018-07-16T17:22:01.090Z,34677.7
2018-07-16T17:23:01.090Z,34475.1
2018-07-16T17:24:01.080Z,34279.6
2018-07-16T17:25:01.107Z,34082.3
2018-07-16T17:26:01.227Z,33883.9
2018-07-16T17:27:01.079Z,33687.6
2018-07-16T17:28:01.083Z,33493.2
2018-07-16T17:29:01.086Z,33302.1
2018-07-16T17:30:01.110Z,33114.5
2018-07-16T17:31:01.194Z,32929.3
2018-07-16T17:32:01.057Z,32744.0
2018-07-16T17:33:01.057Z,32564.7
2018-07-16T17:34:01.048Z,32391.3
2018-07-16T17:35:01.109Z,32236.3
2018-07-16T17:36:01.254Z,32081.2
2018-07-16T17:37:01.088Z,31932.1
2018-07-16T17:38:01.086Z,31789.9
2018-07-16T17:39:01.089Z,31653.8
2018-07-16T17:40:01.128Z,31525.3
2018-07-16T17:41:01.295Z,31403.3
2018-07-16T17:42:01.058Z,31284.7
2018-07-16T17:43:01.155Z,31167.9
2018-07-16T17:44:01.053Z,31050.3
2018-07-16T17:45:01.107Z,30931.2
2018-07-16T17:46:01.227Z,30811.7
2018-07-16T17:47:01.051Z,30693.2
2018-07-16T17:48:01.050Z,30573.7
2018-07-16T17:49:01.053Z,30453.3
2018-07-16T17:50:01.110Z,30317.9
2018-07-16T17:51:01.216Z,30186.3
2018-07-16T17:52:01.083Z,30050.0
2018-07-16T17:53:01.087Z,29907.1
2018-07-16T17:54:01.102Z,29757.1
2018-07-16T17:55:01.052Z,29599.2
2018-07-16T17:56:01.228Z,29433.7
2018-07-16T17:57:01.053Z,29262.6
2018-07-16T17:58:01.080Z,29088.1
2018-07-16T17:59:01.083Z,28910.9
2018-07-16T18:00:01.076Z,28732.6
2018-07-16T18:01:01.223Z,28553.1
2018-07-16T18:02:01.053Z,28371.4
2018-07-16T18:03:01.056Z,28189.1
2018-07-16T18:04:01.058Z,28003.9
2018-07-16T18:05:01.075Z,27818.1
2018-07-16T18:06:01.292Z,27631.3
2018-07-16T18:07:01.083Z,27443.4
2018-07-16T18:08:01.055Z,27255.8
2018-07-16T18:09:01.136Z,27068.8
2018-07-16T18:10:01.111Z,26881.2
2018-07-16T18:11:01.232Z,26692.8
2018-07-16T18:12:01.055Z,26503.4
2018-07-16T18:13:01.090Z,26313.1
2018-07-16T18:14:01.072Z,26122.5
2018-07-16T18:15:06.092Z,25931.5
2018-07-16T18:16:01.210Z,25739.1
2018-07-16T18:17:01.086Z,25545.9
2018-07-16T18:18:01.056Z,25351.7
2018-07-16T18:19:01.116Z,25156.9
2018-07-16T18:20:06.090Z,24960.9
2018-07-16T18:21:01.255Z,24764.1
2018-07-16T18:22:01.056Z,24566.9
2018-07-16T18:23:01.060Z,24367.4
2018-07-16T18:24:01.093Z,24165.6
2018-07-16T18:25:01.083Z,23962.5
2018-07-16T18:26:01.248Z,23758.8
2018-07-16T18:27:01.167Z,23554.7
2018-07-16T18:28:01.062Z,23349.0
2018-07-16T18:29:01.097Z,23141.7
2018-07-16T18:30:01.064Z,22932.5
2018-07-16T18:31:01.426Z,22722.1
2018-07-16T18:33:01.144Z,22494.8
2018-07-16T18:34:01.079Z,22264.8
2018-07-16T18:35:01.045Z,22032.5
2018-07-16T18:36:01.080Z,21798.1
2018-07-16T18:37:01.249Z,21561.6
2018-07-16T18:38:01.050Z,21323.3
2018-07-16T18:39:01.051Z,21083.7
2018-07-16T18:40:01.077Z,20842.9
2018-07-16T18:41:01.074Z,20600.7
2018-07-16T18:42:01.195Z,20356.1
2018-07-16T18:43:01.050Z,20109.3
2018-07-16T18:44:01.056Z,19860.1
2018-07-16T18:45:01.084Z,19608.8
2018-07-16T18:46:01.088Z,19355.1
2018-07-16T18:47:01.218Z,19098.9
2018-07-16T18:48:01.050Z,18855.8
2018-07-16T18:49:01.050Z,18611.5
2018-07-16T18:50:01.061Z,18366.0
2018-07-16T18:51:01.081Z,18118.8
2018-07-16T18:52:01.222Z,17869.7
2018-07-16T18:53:01.056Z,17618.8
2018-07-16T18:54:01.078Z,17365.9
2018-07-16T18:55:06.057Z,17111.3
2018-07-16T18:56:01.083Z,16854.8
2018-07-16T18:57:01.222Z,16597.1
2018-07-16T18:58:01.052Z,16338.1
2018-07-16T18:59:01.085Z,16077.9
2018-07-16T19:00:01.087Z,15816.8
2018-07-16T19:01:01.085Z,15555.1
2018-07-16T19:02:01.228Z,15292.5
2018-07-16T19:03:01.086Z,15028.7
2018-07-16T19:04:01.086Z,14763.7
2018-07-16T19:05:01.217Z,14497.5
2018-07-16T19:06:01.054Z,14230.4
2018-07-16T19:07:01.222Z,13962.7
2018-07-16T19:08:01.089Z,13694.3
2018-07-16T19:09:01.055Z,13425.4
2018-07-16T19:10:01.120Z,13156.0
2018-07-16T19:11:01.062Z,12886.3
2018-07-16T19:12:01.235Z,12616.1
2018-07-16T19:13:01.094Z,12345.4
2018-07-16T19:14:01.095Z,12074.5
2018-07-16T19:15:01.055Z,11803.3
2018-07-16T19:16:01.119Z,11531.5
2018-07-16T19:17:01.260Z,11259.1
2018-07-16T19:18:01.094Z,10986.8
2018-07-16T19:19:01.154Z,10714.4
2018-07-16T19:20:01.098Z,10442.1
2018-07-16T19:21:01.141Z,10169.9
2018-07-16T19:22:01.235Z,9897.7
2018-07-16T19:23:01.066Z,9625.8
2018-07-16T19:24:01.068Z,9354.0
2018-07-16T19:25:01.095Z,9083.1
2018-07-16T19:26:06.102Z,8812.9
2018-07-16T19:27:01.239Z,8543.9
2018-07-16T19:28:01.103Z,8276.2
2018-07-16T19:29:01.166Z,8010.0
2018-07-16T19:30:01.102Z,7745.8
2018-07-16T19:32:01.246Z,7467.8
2018-07-16T19:33:01.099Z,7192.5
2018-07-16T19:34:01.053Z,6919.9
2018-07-16T19:35:01.147Z,6650.1
2018-07-16T19:36:01.107Z,6383.6
2018-07-16T19:37:01.248Z,6120.7
2018-07-16T19:38:01.051Z,5861.4
2018-07-16T19:39:01.222Z,5606.2
2018-07-16T19:40:01.087Z,5355.3
2018-07-16T19:41:01.112Z,5108.7
2018-07-16T19:42:01.231Z,4866.7
2018-07-16T19:43:01.050Z,4629.2
2018-07-16T19:44:01.089Z,4396.9
2018-07-16T19:45:01.057Z,4169.7
2018-07-16T19:46:01.080Z,3947.8
2018-07-16T19:47:01.236Z,3747.5
2018-07-16T19:48:01.082Z,3552.8
2018-07-16T19:49:01.054Z,3363.9
2018-07-16T19:50:01.089Z,3181.0
2018-07-16T19:51:01.163Z,3004.2
2018-07-16T19:52:01.228Z,2833.5
2018-07-16T19:53:01.058Z,2669.1
2018-07-16T19:54:01.061Z,2510.9
2018-07-16T19:55:01.152Z,2359.1
2018-07-16T19:56:01.127Z,2213.6
2018-07-16T19:57:01.280Z,2074.3
2018-07-16T19:58:01.166Z,1941.3
2018-07-16T19:59:01.096Z,1814.3
2018-07-16T20:00:01.065Z,1693.2
2018-07-16T20:01:01.095Z,1578.1
2018-07-16T20:02:01.202Z,1468.6
2018-07-16T20:03:01.060Z,1364.7
2018-07-16T20:04:01.107Z,1266.3
2018-07-16T20:05:01.093Z,1173.1
2018-07-16T20:06:01.117Z,1085.1
2018-07-16T20:07:01.309Z,1002.2
2018-07-16T20:08:01.068Z,924.1
2018-07-16T20:09:01.097Z,850.7
2018-07-16T20:10:01.113Z,781.9
2018-07-16T20:11:06.092Z,717.5
2018-07-16T20:12:01.229Z,657.4
2018-07-16T20:13:01.064Z,601.3
2018-07-16T20:14:01.098Z,549.2
2018-07-16T20:15:01.130Z,500.8
2018-07-16T20:16:06.062Z,455.9
2018-07-16T20:17:01.241Z,414.4
2018-07-16T20:18:01.067Z,376.1
2018-07-16T20:19:01.115Z,340.7
2018-07-16T20:20:01.105Z,308.3
2018-07-16T20:21:01.262Z,278.5
2018-07-16T20:22:01.231Z,251.3
2018-07-16T20:23:01.066Z,226.4
2018-07-16T20:24:01.100Z,203.7
2018-07-16T20:25:01.064Z,183.0
2018-07-16T20:26:01.135Z,164.2
2018-07-16T20:27:01.328Z,147.1
2018-07-16T20:28:01.097Z,131.7
2018-07-16T20:29:01.076Z,117.7
2018-07-16T20:30:01.106Z,105.1
2018-07-16T20:31:01.139Z,93.7
2018-07-16T20:32:01.246Z,83.5
2018-07-16T20:33:01.101Z,74.3
2018-07-16T20:34:01.105Z,66.1
2018-07-16T20:35:01.103Z,58.8
2018-07-16T20:36:01.134Z,52.3
2018-07-16T20:37:01.283Z,46.5
2018-07-16T20:38:01.100Z,41.3
2018-07-16T20:39:01.095Z,36.7
2018-07-16T20:40:01.071Z,32.6
2018-07-16T20:41:01.138Z,28.9
2018-07-16T20:42:01.245Z,25.7
2018-07-16T20:43:01.071Z,22.9
2018-07-16T20:44:01.076Z,20.3
2018-07-16T20:45:01.100Z,18.1
2018-07-16T20:47:01.257Z,16.1
2018-07-16T20:48:01.092Z,14.3
2018-07-16T20:49:01.124Z,12.7
2018-07-16T20:50:01.093Z,11.3
2018-07-16T20:51:01.097Z,10.0
2018-07-16T20:52:01.264Z,8.9
2018-07-16T20:53:01.057Z,7.9
2018-07-16T20:54:01.112Z,7.0
2018-07-16T20:55:01.096Z,6.3
2018-07-16T20:56:01.086Z,5.5
2018-07-16T20:57:01.233Z,4.9
2018-07-16T20:58:01.086Z,4.4
2018-07-16T20:59:01.095Z,3.9
2018-07-16T21:00:01.102Z,3.5
2018-07-16T21:01:01.103Z,3.1
2018-07-16T21:02:01.231Z,2.8
2018-07-16T21:03:01.088Z,2.5
2018-07-16T21:04:01.094Z,2.3
2018-07-16T21:05:01.107Z,2.1
2018-07-16T21:06:01.095Z,1.9
2018-07-16T21:07:01.226Z,1.7
2018-07-16T21:08:01.096Z,1.6
2018-07-16T21:09:01.090Z,1.5
2018-07-16T21:10:01.091Z,1.3
2018-07-16T21:12:01.231Z,1.2
2018-07-16T21:13:01.091Z,1.1
2018-07-16T21:15:01.100Z,0.9
2018-07-16T21:17:01.231Z,0.8
2018-07-16T21:18:01.107Z,0.7
2018-07-16T21:20:01.094Z,0.6
2018-07-16T21:21:01.063Z,0.5
2018-07-16T21:23:01.070Z,0.4
2018-07-16T21:24:01.097Z,0.3
2018-07-16T21:26:01.092Z,0.2
2018-07-16T21:27:01.234Z,0.1
